Rechercher aéroport 
image banner adimage banner adimage banner ad
image banner ad

3CA8 - Holy Cross Medical Center

Situé à San Fernando, United States

ICAO - 3CA8, IATA -

Données fournies par Airmate  

Information générale

Coordonnées: N34°16'48" W118°27'40"
Élévation : 1031 feet MSL.
Variation magnétique : 14° East
Voir autres Aéroports à California

Données opérationnelles

Special qualification required
Heure actuelle UTC:
Heure actuelle locale:
Météo à : KWHP - Whiteman ( 5 km )
METAR: KWHP 210050Z 12005KT 10SM SKC 28/12 A2993
Voir NOTAMs / SUP AIP / TFR affectant cet aéroport [VIEW]
Fréquences de communication: [VIEW]

Pistes:

Coordonnées de l'aéroport

Adresse: San Fernando United States

Vue satellite de 3CA8